sensor_id;sensor_type;location;lat;lon;timestamp;P1;durP1;ratioP1;P2;durP2;ratioP2
70303;SDS011;57712;48.752;11.348;2022-09-17T00:01:00;4.32;;;0.82;;
70303;SDS011;57712;48.752;11.348;2022-09-17T00:03:27;3.63;;;0.77;;
70303;SDS011;57712;48.752;11.348;2022-09-17T00:05:58;3.28;;;0.50;;
70303;SDS011;57712;48.752;11.348;2022-09-17T00:08:29;3.33;;;0.65;;
70303;SDS011;57712;48.752;11.348;2022-09-17T00:10:56;3.83;;;0.97;;
70303;SDS011;57712;48.752;11.348;2022-09-17T00:13:22;4.85;;;0.77;;
70303;SDS011;57712;48.752;11.348;2022-09-17T00:15:49;3.53;;;0.85;;
70303;SDS011;57712;48.752;11.348;2022-09-17T00:18:17;3.38;;;0.77;;
70303;SDS011;57712;48.752;11.348;2022-09-17T00:20:44;3.78;;;1.00;;
70303;SDS011;57712;48.752;11.348;2022-09-17T00:23:12;4.63;;;0.83;;
70303;SDS011;57712;48.752;11.348;2022-09-17T00:25:40;3.22;;;0.73;;
70303;SDS011;57712;48.752;11.348;2022-09-17T00:28:08;6.15;;;0.70;;
70303;SDS011;57712;48.752;11.348;2022-09-17T00:30:35;2.95;;;0.32;;
70303;SDS011;57712;48.752;11.348;2022-09-17T00:33:05;3.53;;;0.93;;
70303;SDS011;57712;48.752;11.348;2022-09-17T00:35:31;3.63;;;0.70;;
70303;SDS011;57712;48.752;11.348;2022-09-17T00:37:58;3.10;;;0.60;;
70303;SDS011;57712;48.752;11.348;2022-09-17T00:40:24;3.47;;;0.60;;
70303;SDS011;57712;48.752;11.348;2022-09-17T00:42:51;3.60;;;0.80;;
70303;SDS011;57712;48.752;11.348;2022-09-17T00:45:18;5.13;;;0.60;;
70303;SDS011;57712;48.752;11.348;2022-09-17T00:47:57;3.03;;;0.57;;
70303;SDS011;57712;48.752;11.348;2022-09-17T00:50:35;4.50;;;0.75;;
70303;SDS011;57712;48.752;11.348;2022-09-17T00:53:13;3.00;;;0.43;;
70303;SDS011;57712;48.752;11.348;2022-09-17T00:55:42;4.43;;;0.80;;
70303;SDS011;57712;48.752;11.348;2022-09-17T00:58:14;3.90;;;0.88;;
70303;SDS011;57712;48.752;11.348;2022-09-17T01:00:43;3.47;;;0.67;;
70303;SDS011;57712;48.752;11.348;2022-09-17T01:03:12;3.63;;;0.80;;
70303;SDS011;57712;48.752;11.348;2022-09-17T01:05:41;3.50;;;0.75;;
70303;SDS011;57712;48.752;11.348;2022-09-17T01:13:29;3.70;;;0.83;;
70303;SDS011;57712;48.752;11.348;2022-09-17T01:16:18;3.92;;;0.98;;
70303;SDS011;57712;48.752;11.348;2022-09-17T01:22:02;3.63;;;0.68;;
70303;SDS011;57712;48.752;11.348;2022-09-17T01:33:34;4.57;;;1.60;;
70303;SDS011;57712;48.752;11.348;2022-09-17T01:36:12;4.25;;;1.70;;
70303;SDS011;57712;48.752;11.348;2022-09-17T01:39:02;6.13;;;1.70;;
70303;SDS011;57712;48.752;11.348;2022-09-17T01:41:55;6.50;;;1.97;;
70303;SDS011;57712;48.752;11.348;2022-09-17T01:44:51;4.43;;;1.58;;
70303;SDS011;57712;48.752;11.348;2022-09-17T01:47:36;4.93;;;1.92;;
70303;SDS011;57712;48.752;11.348;2022-09-17T01:50:11;5.43;;;2.00;;
70303;SDS011;57712;48.752;11.348;2022-09-17T01:52:43;4.30;;;1.60;;
70303;SDS011;57712;48.752;11.348;2022-09-17T01:55:14;6.30;;;1.90;;
70303;SDS011;57712;48.752;11.348;2022-09-17T02:00:16;4.97;;;2.10;;
70303;SDS011;57712;48.752;11.348;2022-09-17T02:05:15;5.93;;;2.20;;
70303;SDS011;57712;48.752;11.348;2022-09-17T02:07:51;5.67;;;1.97;;
70303;SDS011;57712;48.752;11.348;2022-09-17T02:10:22;5.97;;;2.10;;
70303;SDS011;57712;48.752;11.348;2022-09-17T02:12:54;5.43;;;1.55;;
70303;SDS011;57712;48.752;11.348;2022-09-17T02:15:27;6.10;;;2.17;;
70303;SDS011;57712;48.752;11.348;2022-09-17T02:18:02;5.35;;;1.98;;
70303;SDS011;57712;48.752;11.348;2022-09-17T02:20:45;6.10;;;2.00;;
70303;SDS011;57712;48.752;11.348;2022-09-17T02:23:17;5.03;;;2.10;;
70303;SDS011;57712;48.752;11.348;2022-09-17T02:25:49;7.50;;;1.90;;
70303;SDS011;57712;48.752;11.348;2022-09-17T02:28:40;6.50;;;2.30;;
70303;SDS011;57712;48.752;11.348;2022-09-17T02:31:16;5.25;;;2.47;;
70303;SDS011;57712;48.752;11.348;2022-09-17T02:33:43;6.37;;;2.07;;
70303;SDS011;57712;48.752;11.348;2022-09-17T02:36:14;6.90;;;1.75;;
70303;SDS011;57712;48.752;11.348;2022-09-17T02:38:42;6.85;;;2.05;;
70303;SDS011;57712;48.752;11.348;2022-09-17T02:41:20;6.15;;;2.00;;
70303;SDS011;57712;48.752;11.348;2022-09-17T02:49:42;5.85;;;2.00;;
70303;SDS011;57712;48.752;11.348;2022-09-17T02:55:21;6.20;;;2.05;;
70303;SDS011;57712;48.752;11.348;2022-09-17T02:57:55;6.68;;;2.00;;
70303;SDS011;57712;48.752;11.348;2022-09-17T03:00:42;6.17;;;1.40;;
70303;SDS011;57712;48.752;11.348;2022-09-17T03:03:11;6.10;;;1.52;;
70303;SDS011;57712;48.752;11.348;2022-09-17T03:05:45;5.20;;;2.13;;
70303;SDS011;57712;48.752;11.348;2022-09-17T03:08:13;6.00;;;1.52;;
70303;SDS011;57712;48.752;11.348;2022-09-17T03:10:43;6.63;;;1.65;;
70303;SDS011;57712;48.752;11.348;2022-09-17T03:13:10;5.87;;;1.53;;
70303;SDS011;57712;48.752;11.348;2022-09-17T03:15:36;6.82;;;1.77;;
70303;SDS011;57712;48.752;11.348;2022-09-17T03:18:02;6.72;;;2.00;;
70303;SDS011;57712;48.752;11.348;2022-09-17T03:20:29;5.20;;;1.80;;
70303;SDS011;57712;48.752;11.348;2022-09-17T03:22:55;7.97;;;2.33;;
70303;SDS011;57712;48.752;11.348;2022-09-17T03:25:22;5.20;;;1.70;;
70303;SDS011;57712;48.752;11.348;2022-09-17T03:27:49;6.32;;;1.73;;
70303;SDS011;57712;48.752;11.348;2022-09-17T03:30:15;6.53;;;1.85;;
70303;SDS011;57712;48.752;11.348;2022-09-17T03:32:42;8.13;;;2.00;;
70303;SDS011;57712;48.752;11.348;2022-09-17T03:35:08;7.10;;;2.25;;
70303;SDS011;57712;48.752;11.348;2022-09-17T03:37:35;8.27;;;2.70;;
70303;SDS011;57712;48.752;11.348;2022-09-17T03:40:01;7.57;;;2.08;;
70303;SDS011;57712;48.752;11.348;2022-09-17T03:42:28;6.25;;;2.42;;
70303;SDS011;57712;48.752;11.348;2022-09-17T03:44:54;5.82;;;1.90;;
70303;SDS011;57712;48.752;11.348;2022-09-17T03:47:22;6.13;;;1.88;;
70303;SDS011;57712;48.752;11.348;2022-09-17T03:49:48;6.70;;;2.17;;
70303;SDS011;57712;48.752;11.348;2022-09-17T03:52:15;5.63;;;1.63;;
70303;SDS011;57712;48.752;11.348;2022-09-17T03:54:41;5.13;;;1.83;;
70303;SDS011;57712;48.752;11.348;2022-09-17T03:57:07;4.90;;;1.83;;
70303;SDS011;57712;48.752;11.348;2022-09-17T03:59:34;7.28;;;1.77;;
70303;SDS011;57712;48.752;11.348;2022-09-17T04:02:00;5.07;;;1.77;;
70303;SDS011;57712;48.752;11.348;2022-09-17T04:04:27;5.45;;;1.48;;
70303;SDS011;57712;48.752;11.348;2022-09-17T04:06:54;5.82;;;1.85;;
70303;SDS011;57712;48.752;11.348;2022-09-17T04:09:20;8.02;;;2.13;;
70303;SDS011;57712;48.752;11.348;2022-09-17T04:11:46;6.20;;;1.88;;
70303;SDS011;57712;48.752;11.348;2022-09-17T04:14:13;5.70;;;1.90;;
70303;SDS011;57712;48.752;11.348;2022-09-17T04:16:39;6.53;;;1.80;;
70303;SDS011;57712;48.752;11.348;2022-09-17T04:19:06;7.38;;;1.70;;
70303;SDS011;57712;48.752;11.348;2022-09-17T04:21:32;6.15;;;1.92;;
70303;SDS011;57712;48.752;11.348;2022-09-17T04:23:59;8.65;;;2.10;;
70303;SDS011;57712;48.752;11.348;2022-09-17T04:26:25;3.80;;;1.10;;
70303;SDS011;57712;48.752;11.348;2022-09-17T04:28:52;7.47;;;1.90;;
70303;SDS011;57712;48.752;11.348;2022-09-17T04:31:18;6.68;;;1.67;;
70303;SDS011;57712;48.752;11.348;2022-09-17T04:33:45;4.68;;;1.27;;
70303;SDS011;57712;48.752;11.348;2022-09-17T04:36:11;5.93;;;1.83;;
70303;SDS011;57712;48.752;11.348;2022-09-17T04:38:37;6.47;;;1.70;;
70303;SDS011;57712;48.752;11.348;2022-09-17T04:41:05;7.20;;;2.03;;
70303;SDS011;57712;48.752;11.348;2022-09-17T04:43:32;5.25;;;2.00;;
70303;SDS011;57712;48.752;11.348;2022-09-17T04:45:59;6.30;;;2.25;;
70303;SDS011;57712;48.752;11.348;2022-09-17T04:48:26;5.68;;;1.98;;
70303;SDS011;57712;48.752;11.348;2022-09-17T04:50:52;4.27;;;1.90;;
70303;SDS011;57712;48.752;11.348;2022-09-17T04:53:18;5.30;;;1.83;;
70303;SDS011;57712;48.752;11.348;2022-09-17T04:55:45;6.60;;;1.63;;
70303;SDS011;57712;48.752;11.348;2022-09-17T04:58:11;6.15;;;1.38;;
70303;SDS011;57712;48.752;11.348;2022-09-17T05:00:38;5.95;;;2.00;;
70303;SDS011;57712;48.752;11.348;2022-09-17T05:03:07;6.13;;;1.20;;
70303;SDS011;57712;48.752;11.348;2022-09-17T05:05:34;7.40;;;1.73;;
70303;SDS011;57712;48.752;11.348;2022-09-17T05:08:00;10.45;;;2.13;;
70303;SDS011;57712;48.752;11.348;2022-09-17T05:10:27;4.85;;;1.75;;
70303;SDS011;57712;48.752;11.348;2022-09-17T05:12:54;7.55;;;1.90;;
70303;SDS011;57712;48.752;11.348;2022-09-17T05:15:21;6.30;;;1.73;;
70303;SDS011;57712;48.752;11.348;2022-09-17T05:17:49;6.65;;;1.40;;
70303;SDS011;57712;48.752;11.348;2022-09-17T05:20:16;7.45;;;1.75;;
70303;SDS011;57712;48.752;11.348;2022-09-17T05:22:49;6.63;;;1.98;;
70303;SDS011;57712;48.752;11.348;2022-09-17T05:25:18;5.15;;;1.63;;
70303;SDS011;57712;48.752;11.348;2022-09-17T05:27:49;5.23;;;1.10;;
70303;SDS011;57712;48.752;11.348;2022-09-17T05:30:17;6.15;;;1.58;;
70303;SDS011;57712;48.752;11.348;2022-09-17T05:32:43;7.72;;;1.98;;
70303;SDS011;57712;48.752;11.348;2022-09-17T05:35:10;8.18;;;1.45;;
70303;SDS011;57712;48.752;11.348;2022-09-17T05:37:36;6.05;;;1.50;;
70303;SDS011;57712;48.752;11.348;2022-09-17T05:40:03;5.93;;;1.20;;
70303;SDS011;57712;48.752;11.348;2022-09-17T05:42:32;7.88;;;1.67;;
70303;SDS011;57712;48.752;11.348;2022-09-17T05:44:59;9.27;;;2.00;;
70303;SDS011;57712;48.752;11.348;2022-09-17T05:47:25;6.63;;;1.30;;
70303;SDS011;57712;48.752;11.348;2022-09-17T05:49:52;9.27;;;2.00;;
70303;SDS011;57712;48.752;11.348;2022-09-17T05:52:18;6.43;;;1.03;;
70303;SDS011;57712;48.752;11.348;2022-09-17T05:54:45;6.97;;;1.60;;
70303;SDS011;57712;48.752;11.348;2022-09-17T05:57:11;6.60;;;1.15;;
70303;SDS011;57712;48.752;11.348;2022-09-17T05:59:38;8.55;;;1.23;;
70303;SDS011;57712;48.752;11.348;2022-09-17T06:02:05;7.32;;;1.73;;
70303;SDS011;57712;48.752;11.348;2022-09-17T06:04:31;8.53;;;1.60;;
70303;SDS011;57712;48.752;11.348;2022-09-17T06:07:02;6.15;;;1.25;;
70303;SDS011;57712;48.752;11.348;2022-09-17T06:09:34;7.75;;;1.42;;
70303;SDS011;57712;48.752;11.348;2022-09-17T06:12:05;9.75;;;1.83;;
70303;SDS011;57712;48.752;11.348;2022-09-17T06:14:32;5.55;;;1.33;;
70303;SDS011;57712;48.752;11.348;2022-09-17T06:16:58;5.03;;;1.40;;
70303;SDS011;57712;48.752;11.348;2022-09-17T06:19:26;7.53;;;1.48;;
70303;SDS011;57712;48.752;11.348;2022-09-17T06:21:52;6.38;;;1.48;;
70303;SDS011;57712;48.752;11.348;2022-09-17T06:24:19;7.35;;;1.40;;
70303;SDS011;57712;48.752;11.348;2022-09-17T06:26:45;7.10;;;1.45;;
70303;SDS011;57712;48.752;11.348;2022-09-17T06:29:12;8.13;;;1.60;;
70303;SDS011;57712;48.752;11.348;2022-09-17T06:31:40;5.07;;;1.42;;
70303;SDS011;57712;48.752;11.348;2022-09-17T06:34:10;7.70;;;1.30;;
70303;SDS011;57712;48.752;11.348;2022-09-17T06:36:37;11.85;;;1.58;;
70303;SDS011;57712;48.752;11.348;2022-09-17T06:39:03;6.97;;;1.73;;
70303;SDS011;57712;48.752;11.348;2022-09-17T06:41:29;7.07;;;1.60;;
70303;SDS011;57712;48.752;11.348;2022-09-17T06:43:56;6.78;;;1.67;;
70303;SDS011;57712;48.752;11.348;2022-09-17T06:46:23;6.22;;;1.52;;
70303;SDS011;57712;48.752;11.348;2022-09-17T06:48:49;9.40;;;1.50;;
70303;SDS011;57712;48.752;11.348;2022-09-17T06:51:16;8.05;;;1.52;;
70303;SDS011;57712;48.752;11.348;2022-09-17T06:53:42;8.97;;;1.90;;
70303;SDS011;57712;48.752;11.348;2022-09-17T06:56:09;8.30;;;2.20;;
70303;SDS011;57712;48.752;11.348;2022-09-17T06:58:35;8.88;;;1.60;;
70303;SDS011;57712;48.752;11.348;2022-09-17T07:01:03;8.35;;;1.70;;
70303;SDS011;57712;48.752;11.348;2022-09-17T07:03:30;8.38;;;2.47;;
70303;SDS011;57712;48.752;11.348;2022-09-17T07:05:57;7.40;;;1.80;;
70303;SDS011;57712;48.752;11.348;2022-09-17T07:08:24;8.98;;;1.73;;
70303;SDS011;57712;48.752;11.348;2022-09-17T07:10:54;7.97;;;1.92;;
70303;SDS011;57712;48.752;11.348;2022-09-17T07:13:21;7.72;;;2.25;;
70303;SDS011;57712;48.752;11.348;2022-09-17T07:15:52;8.02;;;2.35;;
70303;SDS011;57712;48.752;11.348;2022-09-17T07:18:22;8.87;;;1.90;;
70303;SDS011;57712;48.752;11.348;2022-09-17T07:20:53;9.48;;;2.05;;
70303;SDS011;57712;48.752;11.348;2022-09-17T07:23:27;7.60;;;2.28;;
70303;SDS011;57712;48.752;11.348;2022-09-17T07:25:56;6.53;;;2.30;;
70303;SDS011;57712;48.752;11.348;2022-09-17T07:28:25;9.00;;;2.53;;
70303;SDS011;57712;48.752;11.348;2022-09-17T07:30:52;10.10;;;2.27;;
70303;SDS011;57712;48.752;11.348;2022-09-17T07:33:20;6.22;;;1.80;;
70303;SDS011;57712;48.752;11.348;2022-09-17T07:35:54;11.02;;;2.80;;
70303;SDS011;57712;48.752;11.348;2022-09-17T07:38:25;7.07;;;2.85;;
70303;SDS011;57712;48.752;11.348;2022-09-17T07:43:24;7.93;;;2.33;;
70303;SDS011;57712;48.752;11.348;2022-09-17T07:45:51;7.32;;;2.30;;
70303;SDS011;57712;48.752;11.348;2022-09-17T07:48:19;8.07;;;2.45;;
70303;SDS011;57712;48.752;11.348;2022-09-17T07:50:46;7.38;;;2.75;;
70303;SDS011;57712;48.752;11.348;2022-09-17T07:53:13;9.90;;;3.20;;
70303;SDS011;57712;48.752;11.348;2022-09-17T07:55:39;6.53;;;2.10;;
70303;SDS011;57712;48.752;11.348;2022-09-17T07:58:06;8.07;;;2.17;;
70303;SDS011;57712;48.752;11.348;2022-09-17T08:00:33;9.13;;;2.83;;
70303;SDS011;57712;48.752;11.348;2022-09-17T08:02:59;6.03;;;1.52;;
70303;SDS011;57712;48.752;11.348;2022-09-17T08:05:26;3.70;;;1.17;;
70303;SDS011;57712;48.752;11.348;2022-09-17T08:07:53;5.80;;;1.03;;
70303;SDS011;57712;48.752;11.348;2022-09-17T08:10:21;3.95;;;0.68;;
70303;SDS011;57712;48.752;11.348;2022-09-17T08:12:48;4.78;;;0.50;;
70303;SDS011;57712;48.752;11.348;2022-09-17T08:15:15;2.95;;;0.50;;
70303;SDS011;57712;48.752;11.348;2022-09-17T08:17:45;3.30;;;0.38;;
70303;SDS011;57712;48.752;11.348;2022-09-17T08:20:12;3.33;;;0.67;;
70303;SDS011;57712;48.752;11.348;2022-09-17T08:22:41;4.53;;;0.82;;
70303;SDS011;57712;48.752;11.348;2022-09-17T08:25:14;3.30;;;0.70;;
70303;SDS011;57712;48.752;11.348;2022-09-17T08:27:40;2.80;;;0.30;;
70303;SDS011;57712;48.752;11.348;2022-09-17T08:30:07;3.42;;;0.50;;
70303;SDS011;57712;48.752;11.348;2022-09-17T08:32:34;2.20;;;0.20;;
70303;SDS011;57712;48.752;11.348;2022-09-17T08:35:00;3.63;;;0.40;;
70303;SDS011;57712;48.752;11.348;2022-09-17T08:37:27;3.08;;;0.57;;
70303;SDS011;57712;48.752;11.348;2022-09-17T08:39:55;3.97;;;1.00;;
70303;SDS011;57712;48.752;11.348;2022-09-17T08:45:27;4.20;;;0.93;;
70303;SDS011;57712;48.752;11.348;2022-09-17T08:47:58;3.95;;;0.80;;
70303;SDS011;57712;48.752;11.348;2022-09-17T08:50:31;3.67;;;0.70;;
70303;SDS011;57712;48.752;11.348;2022-09-17T08:58:40;5.63;;;1.30;;
70303;SDS011;57712;48.752;11.348;2022-09-17T09:04:24;5.90;;;1.80;;
70303;SDS011;57712;48.752;11.348;2022-09-17T09:07:15;5.05;;;1.83;;
70303;SDS011;57712;48.752;11.348;2022-09-17T09:09:47;5.10;;;1.42;;
70303;SDS011;57712;48.752;11.348;2022-09-17T09:12:31;6.83;;;2.07;;
70303;SDS011;57712;48.752;11.348;2022-09-17T09:15:03;5.68;;;2.10;;
70303;SDS011;57712;48.752;11.348;2022-09-17T09:17:35;5.22;;;2.40;;
70303;SDS011;57712;48.752;11.348;2022-09-17T09:20:17;6.82;;;2.50;;
70303;SDS011;57712;48.752;11.348;2022-09-17T09:22:49;5.20;;;1.92;;
70303;SDS011;57712;48.752;11.348;2022-09-17T09:31:10;6.65;;;2.72;;
70303;SDS011;57712;48.752;11.348;2022-09-17T09:33:41;6.18;;;2.00;;
70303;SDS011;57712;48.752;11.348;2022-09-17T09:36:14;4.97;;;2.15;;
70303;SDS011;57712;48.752;11.348;2022-09-17T09:38:49;6.30;;;2.37;;
70303;SDS011;57712;48.752;11.348;2022-09-17T09:52:13;5.90;;;2.30;;
70303;SDS011;57712;48.752;11.348;2022-09-17T09:57:32;4.43;;;1.58;;
70303;SDS011;57712;48.752;11.348;2022-09-17T10:03:38;3.38;;;0.98;;
70303;SDS011;57712;48.752;11.348;2022-09-17T10:05:56;5.17;;;0.73;;
70303;SDS011;57712;48.752;11.348;2022-09-17T10:08:24;6.78;;;1.10;;
70303;SDS011;57712;48.752;11.348;2022-09-17T10:10:53;4.15;;;1.00;;
70303;SDS011;57712;48.752;11.348;2022-09-17T10:13:24;5.03;;;0.90;;
70303;SDS011;57712;48.752;11.348;2022-09-17T10:15:52;7.32;;;0.93;;
70303;SDS011;57712;48.752;11.348;2022-09-17T10:18:19;4.47;;;1.10;;
70303;SDS011;57712;48.752;11.348;2022-09-17T10:20:57;4.00;;;0.90;;
70303;SDS011;57712;48.752;11.348;2022-09-17T10:23:25;5.25;;;1.30;;
70303;SDS011;57712;48.752;11.348;2022-09-17T10:25:54;3.20;;;0.88;;
70303;SDS011;57712;48.752;11.348;2022-09-17T10:28:37;4.30;;;1.17;;
70303;SDS011;57712;48.752;11.348;2022-09-17T10:31:10;4.40;;;0.70;;
70303;SDS011;57712;48.752;11.348;2022-09-17T10:33:38;5.70;;;1.05;;
70303;SDS011;57712;48.752;11.348;2022-09-17T10:36:15;5.22;;;1.15;;
70303;SDS011;57712;48.752;11.348;2022-09-17T10:38:43;5.28;;;1.25;;
70303;SDS011;57712;48.752;11.348;2022-09-17T10:41:18;6.25;;;1.15;;
70303;SDS011;57712;48.752;11.348;2022-09-17T10:43:50;5.27;;;0.83;;
70303;SDS011;57712;48.752;11.348;2022-09-17T10:46:18;5.70;;;1.13;;
70303;SDS011;57712;48.752;11.348;2022-09-17T10:51:47;6.93;;;1.13;;
70303;SDS011;57712;48.752;11.348;2022-09-17T10:54:18;5.88;;;1.35;;
70303;SDS011;57712;48.752;11.348;2022-09-17T10:56:59;5.77;;;1.27;;
70303;SDS011;57712;48.752;11.348;2022-09-17T10:59:51;4.50;;;1.55;;
70303;SDS011;57712;48.752;11.348;2022-09-17T11:02:41;4.78;;;0.80;;
70303;SDS011;57712;48.752;11.348;2022-09-17T11:17:26;7.35;;;1.00;;
70303;SDS011;57712;48.752;11.348;2022-09-17T11:23:41;6.05;;;1.40;;
70303;SDS011;57712;48.752;11.348;2022-09-17T11:29:21;5.13;;;1.10;;
70303;SDS011;57712;48.752;11.348;2022-09-17T11:37:25;7.47;;;1.33;;
70303;SDS011;57712;48.752;11.348;2022-09-17T11:40:05;5.47;;;0.83;;
70303;SDS011;57712;48.752;11.348;2022-09-17T11:42:45;5.10;;;1.30;;
70303;SDS011;57712;48.752;11.348;2022-09-17T11:45:18;6.30;;;1.13;;
70303;SDS011;57712;48.752;11.348;2022-09-17T11:47:52;7.07;;;1.63;;
70303;SDS011;57712;48.752;11.348;2022-09-17T11:50:30;5.13;;;0.98;;
70303;SDS011;57712;48.752;11.348;2022-09-17T11:53:16;6.17;;;1.33;;
70303;SDS011;57712;48.752;11.348;2022-09-17T12:13:15;4.57;;;1.20;;
70303;SDS011;57712;48.752;11.348;2022-09-17T12:15:49;5.68;;;1.40;;
70303;SDS011;57712;48.752;11.348;2022-09-17T12:20:59;5.33;;;1.50;;
70303;SDS011;57712;48.752;11.348;2022-09-17T12:23:46;6.30;;;1.80;;
70303;SDS011;57712;48.752;11.348;2022-09-17T12:26:22;6.20;;;0.70;;
70303;SDS011;57712;48.752;11.348;2022-09-17T12:32:03;6.18;;;1.40;;
70303;SDS011;57712;48.752;11.348;2022-09-17T12:43:35;6.07;;;1.50;;
70303;SDS011;57712;48.752;11.348;2022-09-17T12:46:18;5.70;;;2.10;;
70303;SDS011;57712;48.752;11.348;2022-09-17T13:02:52;4.20;;;0.97;;
70303;SDS011;57712;48.752;11.348;2022-09-17T13:22:15;7.05;;;1.23;;
70303;SDS011;57712;48.752;11.348;2022-09-17T13:24:44;4.43;;;1.00;;
70303;SDS011;57712;48.752;11.348;2022-09-17T13:27:21;5.57;;;0.85;;
70303;SDS011;57712;48.752;11.348;2022-09-17T13:37:32;4.18;;;1.13;;
70303;SDS011;57712;48.752;11.348;2022-09-17T13:40:00;5.03;;;1.10;;
70303;SDS011;57712;48.752;11.348;2022-09-17T13:42:29;5.33;;;1.00;;
70303;SDS011;57712;48.752;11.348;2022-09-17T13:45:15;5.45;;;1.60;;
70303;SDS011;57712;48.752;11.348;2022-09-17T13:50:45;6.28;;;1.20;;
70303;SDS011;57712;48.752;11.348;2022-09-17T13:55:46;5.10;;;1.60;;
70303;SDS011;57712;48.752;11.348;2022-09-17T14:00:46;6.32;;;1.45;;
70303;SDS011;57712;48.752;11.348;2022-09-17T14:13:49;6.82;;;1.13;;
70303;SDS011;57712;48.752;11.348;2022-09-17T14:21:42;5.97;;;1.70;;
70303;SDS011;57712;48.752;11.348;2022-09-17T14:24:18;4.63;;;1.10;;
70303;SDS011;57712;48.752;11.348;2022-09-17T14:26:52;5.32;;;1.45;;
70303;SDS011;57712;48.752;11.348;2022-09-17T14:32:35;3.90;;;1.08;;
70303;SDS011;57712;48.752;11.348;2022-09-17T14:35:13;4.17;;;0.80;;
70303;SDS011;57712;48.752;11.348;2022-09-17T14:37:47;4.80;;;1.02;;
70303;SDS011;57712;48.752;11.348;2022-09-17T14:40:19;6.03;;;1.40;;
70303;SDS011;57712;48.752;11.348;2022-09-17T14:42:47;3.90;;;0.70;;
70303;SDS011;57712;48.752;11.348;2022-09-17T14:45:21;3.40;;;0.73;;
70303;SDS011;57712;48.752;11.348;2022-09-17T14:48:15;5.43;;;1.23;;
70303;SDS011;57712;48.752;11.348;2022-09-17T14:50:44;4.18;;;1.13;;
70303;SDS011;57712;48.752;11.348;2022-09-17T14:53:15;6.80;;;1.98;;
70303;SDS011;57712;48.752;11.348;2022-09-17T14:55:47;9.52;;;2.45;;
70303;SDS011;57712;48.752;11.348;2022-09-17T14:58:28;5.13;;;1.50;;
70303;SDS011;57712;48.752;11.348;2022-09-17T15:00:58;6.50;;;1.70;;
70303;SDS011;57712;48.752;11.348;2022-09-17T15:03:25;5.28;;;2.10;;
70303;SDS011;57712;48.752;11.348;2022-09-17T15:05:51;5.32;;;1.20;;
70303;SDS011;57712;48.752;11.348;2022-09-17T15:08:25;7.05;;;1.20;;
70303;SDS011;57712;48.752;11.348;2022-09-17T15:11:01;5.47;;;1.20;;
70303;SDS011;57712;48.752;11.348;2022-09-17T15:13:35;6.60;;;0.93;;
70303;SDS011;57712;48.752;11.348;2022-09-17T15:16:18;4.68;;;0.90;;
70303;SDS011;57712;48.752;11.348;2022-09-17T15:18:50;6.07;;;0.63;;
70303;SDS011;57712;48.752;11.348;2022-09-17T15:21:29;5.05;;;0.70;;
70303;SDS011;57712;48.752;11.348;2022-09-17T15:29:47;4.03;;;0.70;;
70303;SDS011;57712;48.752;11.348;2022-09-17T15:32:16;3.65;;;0.80;;
70303;SDS011;57712;48.752;11.348;2022-09-17T15:34:43;4.40;;;1.50;;
70303;SDS011;57712;48.752;11.348;2022-09-17T15:37:19;5.40;;;1.30;;
70303;SDS011;57712;48.752;11.348;2022-09-17T15:39:50;4.13;;;0.97;;
70303;SDS011;57712;48.752;11.348;2022-09-17T15:42:27;3.22;;;0.40;;
70303;SDS011;57712;48.752;11.348;2022-09-17T15:45:15;4.88;;;1.00;;
70303;SDS011;57712;48.752;11.348;2022-09-17T15:47:52;5.00;;;1.10;;
70303;SDS011;57712;48.752;11.348;2022-09-17T15:50:23;4.47;;;0.80;;
70303;SDS011;57712;48.752;11.348;2022-09-17T15:53:10;5.50;;;0.80;;
70303;SDS011;57712;48.752;11.348;2022-09-17T15:55:42;4.32;;;0.90;;
70303;SDS011;57712;48.752;11.348;2022-09-17T15:58:30;4.93;;;1.00;;
70303;SDS011;57712;48.752;11.348;2022-09-17T16:08:53;5.57;;;0.75;;
70303;SDS011;57712;48.752;11.348;2022-09-17T16:11:26;4.30;;;0.95;;
70303;SDS011;57712;48.752;11.348;2022-09-17T16:13:55;4.38;;;1.00;;
70303;SDS011;57712;48.752;11.348;2022-09-17T16:16:25;4.72;;;1.00;;
70303;SDS011;57712;48.752;11.348;2022-09-17T16:18:57;3.80;;;0.70;;
70303;SDS011;57712;48.752;11.348;2022-09-17T16:21:24;4.70;;;1.00;;
70303;SDS011;57712;48.752;11.348;2022-09-17T16:23:51;4.65;;;0.70;;
70303;SDS011;57712;48.752;11.348;2022-09-17T16:26:20;5.93;;;1.00;;
70303;SDS011;57712;48.752;11.348;2022-09-17T16:28:51;4.93;;;0.85;;
70303;SDS011;57712;48.752;11.348;2022-09-17T16:31:19;5.30;;;0.90;;
70303;SDS011;57712;48.752;11.348;2022-09-17T16:33:46;5.63;;;0.93;;
70303;SDS011;57712;48.752;11.348;2022-09-17T16:36:14;4.50;;;1.00;;
70303;SDS011;57712;48.752;11.348;2022-09-17T16:38:42;5.47;;;0.73;;
70303;SDS011;57712;48.752;11.348;2022-09-17T16:41:08;7.07;;;1.15;;
70303;SDS011;57712;48.752;11.348;2022-09-17T16:43:35;7.40;;;1.40;;
70303;SDS011;57712;48.752;11.348;2022-09-17T16:46:06;3.90;;;0.90;;
70303;SDS011;57712;48.752;11.348;2022-09-17T16:48:35;4.90;;;0.90;;
70303;SDS011;57712;48.752;11.348;2022-09-17T16:51:06;5.25;;;1.35;;
70303;SDS011;57712;48.752;11.348;2022-09-17T16:53:34;5.30;;;0.90;;
70303;SDS011;57712;48.752;11.348;2022-09-17T16:56:00;6.67;;;1.50;;
70303;SDS011;57712;48.752;11.348;2022-09-17T16:58:32;5.25;;;1.33;;
70303;SDS011;57712;48.752;11.348;2022-09-17T17:01:12;6.55;;;1.10;;
70303;SDS011;57712;48.752;11.348;2022-09-17T17:03:40;7.50;;;1.27;;
70303;SDS011;57712;48.752;11.348;2022-09-17T17:06:14;4.82;;;0.93;;
70303;SDS011;57712;48.752;11.348;2022-09-17T17:08:41;4.93;;;1.30;;
70303;SDS011;57712;48.752;11.348;2022-09-17T17:11:08;3.88;;;1.23;;
70303;SDS011;57712;48.752;11.348;2022-09-17T17:13:34;6.15;;;1.02;;
70303;SDS011;57712;48.752;11.348;2022-09-17T17:16:05;6.30;;;0.90;;
70303;SDS011;57712;48.752;11.348;2022-09-17T17:18:32;3.15;;;0.50;;
70303;SDS011;57712;48.752;11.348;2022-09-17T17:21:06;4.50;;;0.80;;
70303;SDS011;57712;48.752;11.348;2022-09-17T17:23:34;4.60;;;0.68;;
70303;SDS011;57712;48.752;11.348;2022-09-17T17:26:00;4.80;;;0.60;;
70303;SDS011;57712;48.752;11.348;2022-09-17T17:28:31;4.95;;;0.70;;
70303;SDS011;57712;48.752;11.348;2022-09-17T17:31:00;4.00;;;0.57;;
70303;SDS011;57712;48.752;11.348;2022-09-17T17:33:26;3.17;;;0.50;;
70303;SDS011;57712;48.752;11.348;2022-09-17T17:35:53;3.80;;;0.40;;
70303;SDS011;57712;48.752;11.348;2022-09-17T17:38:19;3.28;;;0.60;;
70303;SDS011;57712;48.752;11.348;2022-09-17T17:40:46;3.55;;;0.80;;
70303;SDS011;57712;48.752;11.348;2022-09-17T17:43:12;4.28;;;0.47;;
70303;SDS011;57712;48.752;11.348;2022-09-17T17:45:39;3.37;;;0.57;;
70303;SDS011;57712;48.752;11.348;2022-09-17T17:48:05;3.80;;;0.40;;
70303;SDS011;57712;48.752;11.348;2022-09-17T17:50:32;5.03;;;0.70;;
70303;SDS011;57712;48.752;11.348;2022-09-17T17:52:59;3.40;;;0.60;;
70303;SDS011;57712;48.752;11.348;2022-09-17T17:55:25;3.28;;;0.60;;
70303;SDS011;57712;48.752;11.348;2022-09-17T17:57:55;3.03;;;0.70;;
70303;SDS011;57712;48.752;11.348;2022-09-17T18:00:26;4.50;;;0.70;;
70303;SDS011;57712;48.752;11.348;2022-09-17T18:02:53;3.83;;;0.50;;
70303;SDS011;57712;48.752;11.348;2022-09-17T18:05:19;5.63;;;1.35;;
70303;SDS011;57712;48.752;11.348;2022-09-17T18:07:47;17.80;;;4.78;;
70303;SDS011;57712;48.752;11.348;2022-09-17T18:10:14;8.97;;;2.60;;
70303;SDS011;57712;48.752;11.348;2022-09-17T18:12:41;3.58;;;1.05;;
70303;SDS011;57712;48.752;11.348;2022-09-17T18:15:15;3.53;;;0.47;;
70303;SDS011;57712;48.752;11.348;2022-09-17T18:17:42;4.85;;;1.13;;
70303;SDS011;57712;48.752;11.348;2022-09-17T18:20:08;4.38;;;0.98;;